createdAt,value
2023-05-19T00:07:08.159Z,46.00
2023-05-19T00:17:14.991Z,44.00
2023-05-19T00:27:21.229Z,44.00
2023-05-19T00:37:27.221Z,50.00
2023-05-19T00:47:33.413Z,48.00
2023-05-19T00:57:40.232Z,48.00
2023-05-19T01:07:46.484Z,48.00
2023-05-19T01:17:52.777Z,48.00
2023-05-19T01:27:59.190Z,52.00
2023-05-19T01:38:05.068Z,48.00
2023-05-19T01:48:11.794Z,50.00
2023-05-19T01:58:18.128Z,42.00
2023-05-19T02:08:24.180Z,50.00
2023-05-19T02:18:30.599Z,48.00
2023-05-19T02:28:36.930Z,46.00
2023-05-19T02:38:43.620Z,48.00
2023-05-19T02:48:49.581Z,50.00
2023-05-19T02:58:55.878Z,48.00
2023-05-19T03:09:02.073Z,46.00
2023-05-19T03:19:08.545Z,50.00
2023-05-19T03:29:14.889Z,50.00
2023-05-19T03:39:21.052Z,48.00
2023-05-19T03:49:27.643Z,50.00
2023-05-19T03:59:34.030Z,46.00
2023-05-19T04:09:40.156Z,48.00
2023-05-19T04:19:46.317Z,50.00
2023-05-19T04:29:52.519Z,48.00
2023-05-19T04:39:59.009Z,46.00
2023-05-19T04:50:05.151Z,50.00
2023-05-19T05:00:10.223Z,54.00
2023-05-19T05:10:16.220Z,58.00
2023-05-19T05:20:22.019Z,64.00
2023-05-19T05:30:28.011Z,58.00
2023-05-19T05:40:34.072Z,58.00
2023-05-19T05:50:39.831Z,56.00
2023-05-19T06:00:45.597Z,58.00
2023-05-19T06:10:50.861Z,64.00
2023-05-19T06:20:53.487Z,64.00
2023-05-19T06:30:59.643Z,60.00
2023-05-19T06:41:05.410Z,64.00
2023-05-19T06:51:11.951Z,64.00
2023-05-19T07:01:18.595Z,64.00
2023-05-19T07:11:24.698Z,66.00
2023-05-19T07:21:30.316Z,66.00
2023-05-19T07:31:36.045Z,68.00
2023-05-19T07:41:42.072Z,60.00
2023-05-19T07:51:48.087Z,58.00
2023-05-19T08:01:53.290Z,56.00
2023-05-19T08:11:58.570Z,58.00
2023-05-19T08:22:04.265Z,58.00
2023-05-19T08:32:11.633Z,58.00
2023-05-19T08:42:19.064Z,58.00
2023-05-19T08:52:25.183Z,68.00
2023-05-19T09:02:30.877Z,62.00
2023-05-19T09:12:36.765Z,54.00
2023-05-19T09:22:42.560Z,62.00
2023-05-19T09:32:48.723Z,62.00
2023-05-19T09:42:54.332Z,66.00
2023-05-19T09:53:00.004Z,66.00
2023-05-19T10:03:05.478Z,64.00
2023-05-19T10:13:11.152Z,68.00
2023-05-19T10:23:17.151Z,60.00
2023-05-19T10:33:23.276Z,64.00
2023-05-19T10:43:29.076Z,64.00
2023-05-19T10:53:35.131Z,68.00
2023-05-19T11:03:43.036Z,66.00
2023-05-19T11:13:49.207Z,66.00
2023-05-19T11:23:54.436Z,68.00
2023-05-19T11:34:00.684Z,66.00
2023-05-19T11:44:06.247Z,68.00
2023-05-19T11:54:12.032Z,64.00
2023-05-19T12:04:17.923Z,62.00
2023-05-19T12:14:23.674Z,64.00
2023-05-19T12:24:29.250Z,64.00
2023-05-19T12:34:35.239Z,68.00
2023-05-19T12:44:40.828Z,66.00
2023-05-19T12:54:46.692Z,66.00
2023-05-19T13:04:52.535Z,66.00
2023-05-19T13:14:58.181Z,68.00
2023-05-19T13:25:04.027Z,62.00
2023-05-19T13:35:09.750Z,68.00
2023-05-19T13:45:15.465Z,66.00
2023-05-19T13:55:20.979Z,64.00
2023-05-19T14:05:26.610Z,66.00
2023-05-19T14:15:32.466Z,66.00
2023-05-19T14:25:38.381Z,66.00
2023-05-19T14:35:44.293Z,64.00
2023-05-19T14:45:49.940Z,64.00
2023-05-19T14:55:55.605Z,66.00
2023-05-19T15:06:01.123Z,72.00
2023-05-19T15:16:17.068Z,66.00
2023-05-19T15:26:16.906Z,64.00
2023-05-19T15:36:22.589Z,70.00
2023-05-19T15:46:28.357Z,64.00
2023-05-19T15:56:34.050Z,66.00
2023-05-19T16:06:39.634Z,68.00
2023-05-19T16:16:45.164Z,68.00
2023-05-19T16:26:51.139Z,68.00
2023-05-19T16:36:57.482Z,66.00
2023-05-19T16:47:03.268Z,68.00
2023-05-19T16:57:09.064Z,62.00
2023-05-19T17:07:14.879Z,64.00
2023-05-19T17:17:20.032Z,64.00
2023-05-19T17:27:25.907Z,66.00
2023-05-19T17:37:31.976Z,62.00
2023-05-19T17:47:37.693Z,68.00
2023-05-19T17:57:43.293Z,64.00
2023-05-19T18:07:49.104Z,64.00
2023-05-19T18:17:54.854Z,66.00
2023-05-19T18:28:00.746Z,64.00
2023-05-19T18:38:06.234Z,66.00
2023-05-19T18:48:12.172Z,68.00
2023-05-19T18:58:17.810Z,64.00
2023-05-19T19:08:23.257Z,68.00
2023-05-19T19:18:28.760Z,66.00
2023-05-19T19:28:34.578Z,60.00
2023-05-19T19:38:40.369Z,48.00
2023-05-19T19:48:45.603Z,52.00
2023-05-19T19:58:51.073Z,52.00
2023-05-19T20:08:56.354Z,50.00
2023-05-19T20:19:02.188Z,50.00
2023-05-19T20:29:07.939Z,52.00
2023-05-19T20:39:13.916Z,48.00
2023-05-19T20:49:19.720Z,44.00
2023-05-19T20:59:25.134Z,50.00
2023-05-19T21:09:30.899Z,40.00
2023-05-19T21:19:36.627Z,54.00
2023-05-19T21:29:42.751Z,54.00
2023-05-19T21:39:48.140Z,56.00
2023-05-19T21:49:53.472Z,50.00
2023-05-19T21:59:58.740Z,50.00
2023-05-19T22:10:04.568Z,50.00
2023-05-19T22:20:09.814Z,56.00
2023-05-19T22:30:15.553Z,54.00
2023-05-19T22:40:21.063Z,56.00
2023-05-19T22:50:27.037Z,52.00
2023-05-19T23:00:32.954Z,52.00
2023-05-19T23:10:38.542Z,50.00
2023-05-19T23:20:44.129Z,54.00
2023-05-19T23:30:50.029Z,58.00
2023-05-19T23:40:55.802Z,54.00
2023-05-19T23:51:01.418Z,56.00
